sensor_id;sensor_type;location;lat;lon;timestamp;pressure;altitude;pressure_sealevel;temperature;humidity
23318;BME280;11831;55.918;37.746;2022-07-18T00:00:16;99345.00;;;18.13;0.00
23318;BME280;11831;55.918;37.746;2022-07-18T00:02:42;99346.28;;;18.20;0.00
23318;BME280;11831;55.918;37.746;2022-07-18T00:05:08;99344.63;;;18.24;0.00
23318;BME280;11831;55.918;37.746;2022-07-18T00:07:34;99341.78;;;18.50;0.00
23318;BME280;11831;55.918;37.746;2022-07-18T00:10:00;99338.63;;;18.38;0.00
23318;BME280;11831;55.918;37.746;2022-07-18T00:12:28;99330.97;;;18.45;0.00
23318;BME280;11831;55.918;37.746;2022-07-18T00:14:54;99338.44;;;18.58;0.00
23318;BME280;11831;55.918;37.746;2022-07-18T00:17:20;99339.47;;;18.67;0.00
23318;BME280;11831;55.918;37.746;2022-07-18T00:19:46;99331.47;;;18.52;0.00
23318;BME280;11831;55.918;37.746;2022-07-18T00:22:12;99333.94;;;18.09;0.00
23318;BME280;11831;55.918;37.746;2022-07-18T00:24:38;99344.78;;;17.99;0.00
23318;BME280;11831;55.918;37.746;2022-07-18T00:27:05;99342.94;;;17.89;0.00
23318;BME280;11831;55.918;37.746;2022-07-18T00:29:33;99343.09;;;18.13;0.00
23318;BME280;11831;55.918;37.746;2022-07-18T00:32:06;99349.28;;;18.19;0.00
23318;BME280;11831;55.918;37.746;2022-07-18T00:34:32;99337.19;;;18.06;0.00
23318;BME280;11831;55.918;37.746;2022-07-18T00:36:58;99325.84;;;18.43;0.00
23318;BME280;11831;55.918;37.746;2022-07-18T00:39:25;99330.97;;;18.45;0.00
23318;BME280;11831;55.918;37.746;2022-07-18T00:41:51;99321.78;;;18.46;0.00
23318;BME280;11831;55.918;37.746;2022-07-18T00:44:18;99314.75;;;18.45;0.00
23318;BME280;11831;55.918;37.746;2022-07-18T00:46:45;99320.72;;;18.42;0.00
23318;BME280;11831;55.918;37.746;2022-07-18T00:49:11;99320.50;;;18.33;0.00
23318;BME280;11831;55.918;37.746;2022-07-18T00:51:37;99319.94;;;17.92;0.00
23318;BME280;11831;55.918;37.746;2022-07-18T00:54:04;99325.53;;;18.06;0.00
23318;BME280;11831;55.918;37.746;2022-07-18T00:56:30;99318.66;;;18.23;0.00
23318;BME280;11831;55.918;37.746;2022-07-18T00:58:56;99313.25;;;18.23;0.00
23318;BME280;11831;55.918;37.746;2022-07-18T01:01:23;99324.97;;;18.14;0.00
23318;BME280;11831;55.918;37.746;2022-07-18T01:04:08;99326.69;;;17.94;0.00
23318;BME280;11831;55.918;37.746;2022-07-18T01:06:34;99321.94;;;18.20;0.00
23318;BME280;11831;55.918;37.746;2022-07-18T01:09:00;99327.50;;;17.95;0.00
23318;BME280;11831;55.918;37.746;2022-07-18T01:11:27;99319.91;;;17.97;0.00
23318;BME280;11831;55.918;37.746;2022-07-18T01:13:53;99333.69;;;18.00;0.00
23318;BME280;11831;55.918;37.746;2022-07-18T01:16:22;99319.88;;;18.07;0.00
23318;BME280;11831;55.918;37.746;2022-07-18T01:18:49;99319.91;;;18.36;0.00
23318;BME280;11831;55.918;37.746;2022-07-18T01:21:15;99321.91;;;18.25;0.00
23318;BME280;11831;55.918;37.746;2022-07-18T01:23:42;99312.03;;;18.00;0.00
23318;BME280;11831;55.918;37.746;2022-07-18T01:26:08;99315.16;;;18.23;0.00
23318;BME280;11831;55.918;37.746;2022-07-18T01:28:34;99316.69;;;18.34;0.00
23318;BME280;11831;55.918;37.746;2022-07-18T01:31:01;99307.87;;;18.18;0.00
23318;BME280;11831;55.918;37.746;2022-07-18T01:33:30;99311.72;;;18.51;0.00
23318;BME280;11831;55.918;37.746;2022-07-18T01:35:57;99308.59;;;18.73;0.00
23318;BME280;11831;55.918;37.746;2022-07-18T01:38:23;99306.97;;;18.72;0.00
23318;BME280;11831;55.918;37.746;2022-07-18T01:40:50;99303.97;;;19.03;0.00
23318;BME280;11831;55.918;37.746;2022-07-18T01:43:16;99302.75;;;19.14;0.00
23318;BME280;11831;55.918;37.746;2022-07-18T01:45:42;99303.84;;;19.13;0.00
23318;BME280;11831;55.918;37.746;2022-07-18T01:48:08;99298.22;;;19.09;0.00
23318;BME280;11831;55.918;37.746;2022-07-18T01:50:34;99299.13;;;19.00;0.00
23318;BME280;11831;55.918;37.746;2022-07-18T01:53:00;99290.75;;;18.67;0.00
23318;BME280;11831;55.918;37.746;2022-07-18T01:55:27;99302.34;;;19.02;0.00
23318;BME280;11831;55.918;37.746;2022-07-18T01:57:53;99288.81;;;18.73;0.00
23318;BME280;11831;55.918;37.746;2022-07-18T02:00:19;99297.19;;;19.29;0.00
23318;BME280;11831;55.918;37.746;2022-07-18T02:02:45;99298.41;;;18.89;0.00
23318;BME280;11831;55.918;37.746;2022-07-18T02:05:11;99289.06;;;18.76;0.00
23318;BME280;11831;55.918;37.746;2022-07-18T02:07:38;99295.62;;;18.70;0.00
23318;BME280;11831;55.918;37.746;2022-07-18T02:10:06;99293.22;;;18.92;0.00
23318;BME280;11831;55.918;37.746;2022-07-18T02:12:32;99287.50;;;18.70;0.00
23318;BME280;11831;55.918;37.746;2022-07-18T02:14:58;99288.59;;;18.64;0.00
23318;BME280;11831;55.918;37.746;2022-07-18T02:17:25;99292.03;;;18.75;0.00
23318;BME280;11831;55.918;37.746;2022-07-18T02:19:51;99297.38;;;18.51;0.00
23318;BME280;11831;55.918;37.746;2022-07-18T02:22:17;99297.00;;;18.68;0.00
23318;BME280;11831;55.918;37.746;2022-07-18T02:24:43;99292.09;;;18.30;0.00
23318;BME280;11831;55.918;37.746;2022-07-18T02:27:10;99292.13;;;18.65;0.00
23318;BME280;11831;55.918;37.746;2022-07-18T02:29:36;99295.47;;;18.85;0.00
23318;BME280;11831;55.918;37.746;2022-07-18T02:32:02;99290.25;;;19.18;0.00
23318;BME280;11831;55.918;37.746;2022-07-18T02:34:29;99287.25;;;19.43;0.00
23318;BME280;11831;55.918;37.746;2022-07-18T02:36:55;99286.81;;;19.60;0.00
23318;BME280;11831;55.918;37.746;2022-07-18T02:39:21;99289.16;;;19.67;0.00
23318;BME280;11831;55.918;37.746;2022-07-18T02:41:47;99292.69;;;19.86;0.00
23318;BME280;11831;55.918;37.746;2022-07-18T02:44:13;99291.53;;;19.92;0.00
23318;BME280;11831;55.918;37.746;2022-07-18T02:46:40;99294.16;;;19.78;0.00
23318;BME280;11831;55.918;37.746;2022-07-18T02:49:06;99295.31;;;19.48;0.00
23318;BME280;11831;55.918;37.746;2022-07-18T02:51:32;99297.22;;;19.72;0.00
23318;BME280;11831;55.918;37.746;2022-07-18T02:53:59;99292.78;;;19.57;0.00
23318;BME280;11831;55.918;37.746;2022-07-18T02:56:25;99300.28;;;19.41;0.00
23318;BME280;11831;55.918;37.746;2022-07-18T02:58:51;99300.69;;;18.77;0.00
23318;BME280;11831;55.918;37.746;2022-07-18T03:01:17;99304.09;;;19.16;0.00
23318;BME280;11831;55.918;37.746;2022-07-18T03:03:43;99299.41;;;18.98;0.00
23318;BME280;11831;55.918;37.746;2022-07-18T03:06:09;99302.25;;;18.83;0.00
23318;BME280;11831;55.918;37.746;2022-07-18T03:08:36;99294.75;;;19.04;0.00
23318;BME280;11831;55.918;37.746;2022-07-18T03:11:02;99293.75;;;18.95;0.00
23318;BME280;11831;55.918;37.746;2022-07-18T03:13:28;99290.78;;;18.91;0.00
23318;BME280;11831;55.918;37.746;2022-07-18T03:15:54;99291.87;;;18.90;0.00
23318;BME280;11831;55.918;37.746;2022-07-18T03:18:20;99294.25;;;18.97;0.00
23318;BME280;11831;55.918;37.746;2022-07-18T03:20:48;99294.41;;;18.81;0.00
23318;BME280;11831;55.918;37.746;2022-07-18T03:23:14;99289.41;;;18.93;0.00
23318;BME280;11831;55.918;37.746;2022-07-18T03:25:40;99295.06;;;18.97;0.00
23318;BME280;11831;55.918;37.746;2022-07-18T03:28:06;99293.03;;;18.84;0.00
23318;BME280;11831;55.918;37.746;2022-07-18T03:30:32;99298.78;;;18.77;0.00
23318;BME280;11831;55.918;37.746;2022-07-18T03:32:58;99288.00;;;18.72;0.00
23318;BME280;11831;55.918;37.746;2022-07-18T03:35:24;99296.56;;;18.84;0.00
23318;BME280;11831;55.918;37.746;2022-07-18T03:37:51;99295.31;;;19.01;0.00
23318;BME280;11831;55.918;37.746;2022-07-18T03:40:17;99291.97;;;19.09;0.00
23318;BME280;11831;55.918;37.746;2022-07-18T03:42:43;99297.53;;;18.93;0.00
23318;BME280;11831;55.918;37.746;2022-07-18T03:45:10;99296.72;;;18.93;0.00
23318;BME280;11831;55.918;37.746;2022-07-18T03:47:36;99301.63;;;18.91;0.00
23318;BME280;11831;55.918;37.746;2022-07-18T03:50:02;99293.44;;;18.72;0.00
23318;BME280;11831;55.918;37.746;2022-07-18T03:52:29;99300.53;;;18.63;0.00
23318;BME280;11831;55.918;37.746;2022-07-18T03:54:55;99298.41;;;18.55;0.00
23318;BME280;11831;55.918;37.746;2022-07-18T03:57:21;99304.19;;;18.43;0.00
23318;BME280;11831;55.918;37.746;2022-07-18T03:59:47;99294.75;;;18.41;0.00
23318;BME280;11831;55.918;37.746;2022-07-18T04:02:13;99293.31;;;18.48;0.00
23318;BME280;11831;55.918;37.746;2022-07-18T04:04:39;99292.56;;;18.43;0.00
23318;BME280;11831;55.918;37.746;2022-07-18T04:07:05;99297.81;;;18.24;0.00
23318;BME280;11831;55.918;37.746;2022-07-18T04:09:31;99293.66;;;17.97;0.00
23318;BME280;11831;55.918;37.746;2022-07-18T04:11:58;99289.75;;;18.19;0.00
23318;BME280;11831;55.918;37.746;2022-07-18T04:14:24;99288.81;;;18.39;0.00
23318;BME280;11831;55.918;37.746;2022-07-18T04:16:50;99293.94;;;18.35;0.00
23318;BME280;11831;55.918;37.746;2022-07-18T04:19:16;99291.28;;;18.30;0.00
23318;BME280;11831;55.918;37.746;2022-07-18T04:21:45;99290.47;;;18.29;0.00
23318;BME280;11831;55.918;37.746;2022-07-18T04:24:11;99298.56;;;18.35;0.00
23318;BME280;11831;55.918;37.746;2022-07-18T04:26:37;99293.84;;;18.50;0.00
23318;BME280;11831;55.918;37.746;2022-07-18T04:29:03;99297.66;;;18.49;0.00
23318;BME280;11831;55.918;37.746;2022-07-18T04:31:29;99292.94;;;18.65;0.00
23318;BME280;11831;55.918;37.746;2022-07-18T04:33:55;99298.34;;;18.60;0.00
23318;BME280;11831;55.918;37.746;2022-07-18T04:36:21;99302.94;;;18.65;0.00
23318;BME280;11831;55.918;37.746;2022-07-18T04:38:48;99299.31;;;18.79;0.00
23318;BME280;11831;55.918;37.746;2022-07-18T04:41:14;99300.09;;;19.09;0.00
23318;BME280;11831;55.918;37.746;2022-07-18T04:43:40;99298.59;;;19.21;0.00
23318;BME280;11831;55.918;37.746;2022-07-18T04:46:06;99292.31;;;19.50;0.00
23318;BME280;11831;55.918;37.746;2022-07-18T04:48:32;99291.47;;;19.54;0.00
23318;BME280;11831;55.918;37.746;2022-07-18T04:50:58;99285.72;;;19.80;0.00
23318;BME280;11831;55.918;37.746;2022-07-18T04:53:25;99291.81;;;20.09;0.00
23318;BME280;11831;55.918;37.746;2022-07-18T04:55:51;99286.09;;;20.11;0.00
23318;BME280;11831;55.918;37.746;2022-07-18T04:58:17;99278.16;;;20.52;0.00
23318;BME280;11831;55.918;37.746;2022-07-18T05:00:43;99273.78;;;20.70;0.00
23318;BME280;11831;55.918;37.746;2022-07-18T05:03:09;99282.28;;;20.82;0.00
23318;BME280;11831;55.918;37.746;2022-07-18T05:05:35;99283.78;;;20.88;0.00
23318;BME280;11831;55.918;37.746;2022-07-18T05:08:01;99280.34;;;20.50;0.00
23318;BME280;11831;55.918;37.746;2022-07-18T05:10:27;99274.91;;;20.50;0.00
23318;BME280;11831;55.918;37.746;2022-07-18T05:12:53;99276.69;;;20.60;0.00
23318;BME280;11831;55.918;37.746;2022-07-18T05:15:21;99276.69;;;20.73;0.00
23318;BME280;11831;55.918;37.746;2022-07-18T05:17:48;99276.09;;;20.63;0.00
23318;BME280;11831;55.918;37.746;2022-07-18T05:20:15;99278.78;;;20.63;0.00
23318;BME280;11831;55.918;37.746;2022-07-18T05:22:42;99280.72;;;20.43;0.00
23318;BME280;11831;55.918;37.746;2022-07-18T05:25:08;99282.25;;;20.50;0.00
23318;BME280;11831;55.918;37.746;2022-07-18T05:27:36;99283.97;;;20.27;0.00
23318;BME280;11831;55.918;37.746;2022-07-18T05:30:03;99290.84;;;20.38;0.00
23318;BME280;11831;55.918;37.746;2022-07-18T05:32:30;99282.50;;;20.53;0.00
23318;BME280;11831;55.918;37.746;2022-07-18T05:34:56;99292.63;;;20.48;0.00
23318;BME280;11831;55.918;37.746;2022-07-18T05:37:23;99293.41;;;20.48;0.00
23318;BME280;11831;55.918;37.746;2022-07-18T05:39:49;99307.00;;;19.92;0.00
23318;BME280;11831;55.918;37.746;2022-07-18T05:42:17;99311.12;;;20.08;0.00
23318;BME280;11831;55.918;37.746;2022-07-18T05:44:43;99314.56;;;20.32;0.00
23318;BME280;11831;55.918;37.746;2022-07-18T05:47:09;99301.00;;;20.51;0.00
23318;BME280;11831;55.918;37.746;2022-07-18T05:49:36;99300.19;;;20.13;0.00
23318;BME280;11831;55.918;37.746;2022-07-18T05:52:02;99297.75;;;20.11;0.00
23318;BME280;11831;55.918;37.746;2022-07-18T05:54:28;99289.84;;;20.34;0.00
23318;BME280;11831;55.918;37.746;2022-07-18T05:56:54;99286.47;;;20.42;0.00
23318;BME280;11831;55.918;37.746;2022-07-18T05:59:20;99285.03;;;20.63;0.00
23318;BME280;11831;55.918;37.746;2022-07-18T06:01:47;99275.81;;;20.78;0.00
23318;BME280;11831;55.918;37.746;2022-07-18T06:04:13;99278.59;;;20.73;0.00
23318;BME280;11831;55.918;37.746;2022-07-18T06:06:40;99270.81;;;20.99;0.00
23318;BME280;11831;55.918;37.746;2022-07-18T06:09:07;99266.34;;;20.75;0.00
23318;BME280;11831;55.918;37.746;2022-07-18T06:11:34;99259.03;;;20.90;0.00
23318;BME280;11831;55.918;37.746;2022-07-18T06:14:00;99257.91;;;20.44;0.00
23318;BME280;11831;55.918;37.746;2022-07-18T06:16:28;99252.66;;;20.81;0.00
23318;BME280;11831;55.918;37.746;2022-07-18T06:18:56;99258.06;;;20.67;0.00
23318;BME280;11831;55.918;37.746;2022-07-18T06:21:22;99252.28;;;20.87;0.00
23318;BME280;11831;55.918;37.746;2022-07-18T06:23:48;99256.94;;;20.54;0.00
23318;BME280;11831;55.918;37.746;2022-07-18T06:26:14;99246.81;;;20.73;0.00
23318;BME280;11831;55.918;37.746;2022-07-18T06:28:40;99251.59;;;20.82;0.00
23318;BME280;11831;55.918;37.746;2022-07-18T06:31:06;99250.19;;;20.84;0.00
23318;BME280;11831;55.918;37.746;2022-07-18T06:33:33;99252.16;;;20.78;0.00
23318;BME280;11831;55.918;37.746;2022-07-18T06:35:59;99252.34;;;20.68;0.00
23318;BME280;11831;55.918;37.746;2022-07-18T06:38:25;99253.44;;;20.35;0.00
23318;BME280;11831;55.918;37.746;2022-07-18T06:40:51;99242.75;;;20.06;0.00
23318;BME280;11831;55.918;37.746;2022-07-18T06:43:17;99239.59;;;20.17;0.00
23318;BME280;11831;55.918;37.746;2022-07-18T06:45:46;99245.66;;;20.47;0.00
23318;BME280;11831;55.918;37.746;2022-07-18T06:48:13;99247.91;;;20.59;0.00
23318;BME280;11831;55.918;37.746;2022-07-18T06:50:39;99246.97;;;20.82;0.00
23318;BME280;11831;55.918;37.746;2022-07-18T06:53:05;99243.69;;;20.80;0.00
23318;BME280;11831;55.918;37.746;2022-07-18T06:55:31;99250.41;;;21.15;0.00
23318;BME280;11831;55.918;37.746;2022-07-18T06:57:57;99241.47;;;21.28;0.00
23318;BME280;11831;55.918;37.746;2022-07-18T07:00:23;99234.50;;;21.36;0.00
23318;BME280;11831;55.918;37.746;2022-07-18T07:02:49;99237.72;;;21.38;0.00
23318;BME280;11831;55.918;37.746;2022-07-18T07:05:16;99232.81;;;21.26;0.00
23318;BME280;11831;55.918;37.746;2022-07-18T07:07:43;99238.00;;;21.23;0.00
23318;BME280;11831;55.918;37.746;2022-07-18T07:10:09;99229.03;;;20.95;0.00
23318;BME280;11831;55.918;37.746;2022-07-18T07:12:42;99232.69;;;21.31;0.00
23318;BME280;11831;55.918;37.746;2022-07-18T07:15:09;99236.94;;;21.24;0.00
23318;BME280;11831;55.918;37.746;2022-07-18T07:17:35;99238.63;;;21.33;0.00
23318;BME280;11831;55.918;37.746;2022-07-18T07:20:03;99236.66;;;21.75;0.00
23318;BME280;11831;55.918;37.746;2022-07-18T07:22:30;99240.66;;;21.28;0.00
23318;BME280;11831;55.918;37.746;2022-07-18T07:24:56;99228.63;;;21.56;0.00
23318;BME280;11831;55.918;37.746;2022-07-18T07:27:22;99228.22;;;21.63;0.00
23318;BME280;11831;55.918;37.746;2022-07-18T07:29:48;99226.97;;;21.69;0.00
23318;BME280;11831;55.918;37.746;2022-07-18T07:32:14;99220.47;;;21.92;0.00
23318;BME280;11831;55.918;37.746;2022-07-18T07:34:40;99225.72;;;21.39;0.00
23318;BME280;11831;55.918;37.746;2022-07-18T07:37:06;99230.91;;;21.77;0.00
23318;BME280;11831;55.918;37.746;2022-07-18T07:39:32;99229.41;;;21.70;0.00
23318;BME280;11831;55.918;37.746;2022-07-18T07:41:58;99227.91;;;21.64;0.00
23318;BME280;11831;55.918;37.746;2022-07-18T07:44:24;99237.25;;;21.72;0.00
23318;BME280;11831;55.918;37.746;2022-07-18T07:46:50;99232.31;;;22.33;0.00
23318;BME280;11831;55.918;37.746;2022-07-18T07:49:16;99231.66;;;21.55;0.00
23318;BME280;11831;55.918;37.746;2022-07-18T07:51:42;99226.16;;;21.82;0.00
23318;BME280;11831;55.918;37.746;2022-07-18T07:54:08;99218.72;;;21.74;0.00
23318;BME280;11831;55.918;37.746;2022-07-18T07:56:34;99220.97;;;22.08;0.00
23318;BME280;11831;55.918;37.746;2022-07-18T07:59:00;99227.50;;;22.52;0.00
23318;BME280;11831;55.918;37.746;2022-07-18T08:01:27;99224.37;;;22.14;0.00
23318;BME280;11831;55.918;37.746;2022-07-18T08:03:53;99225.03;;;22.42;0.00
23318;BME280;11831;55.918;37.746;2022-07-18T08:06:19;99221.59;;;21.91;0.00
23318;BME280;11831;55.918;37.746;2022-07-18T08:08:45;99216.37;;;22.40;0.00
23318;BME280;11831;55.918;37.746;2022-07-18T08:11:11;99206.06;;;23.30;0.00
23318;BME280;11831;55.918;37.746;2022-07-18T08:13:37;99202.16;;;23.22;0.00
23318;BME280;11831;55.918;37.746;2022-07-18T08:16:03;99207.91;;;23.12;0.00
23318;BME280;11831;55.918;37.746;2022-07-18T08:18:29;99201.00;;;23.97;0.00
23318;BME280;11831;55.918;37.746;2022-07-18T08:20:55;99195.72;;;23.09;0.00
23318;BME280;11831;55.918;37.746;2022-07-18T08:23:21;99192.91;;;23.49;0.00
23318;BME280;11831;55.918;37.746;2022-07-18T08:25:47;99194.69;;;23.45;0.00
23318;BME280;11831;55.918;37.746;2022-07-18T08:28:13;99195.22;;;23.73;0.00
23318;BME280;11831;55.918;37.746;2022-07-18T08:30:40;99191.69;;;24.07;0.00
23318;BME280;11831;55.918;37.746;2022-07-18T08:33:06;99187.97;;;24.20;0.00
23318;BME280;11831;55.918;37.746;2022-07-18T08:35:32;99198.44;;;23.75;0.00
23318;BME280;11831;55.918;37.746;2022-07-18T08:37:59;99182.03;;;23.83;0.00
23318;BME280;11831;55.918;37.746;2022-07-18T08:40:25;99175.97;;;23.95;0.00
23318;BME280;11831;55.918;37.746;2022-07-18T08:42:53;99163.22;;;24.25;0.00
23318;BME280;11831;55.918;37.746;2022-07-18T08:45:23;99168.97;;;24.50;0.00
23318;BME280;11831;55.918;37.746;2022-07-18T08:47:50;99166.22;;;24.58;0.00
23318;BME280;11831;55.918;37.746;2022-07-18T08:50:17;99168.75;;;24.63;0.00
23318;BME280;11831;55.918;37.746;2022-07-18T08:52:43;99175.75;;;24.26;0.00
23318;BME280;11831;55.918;37.746;2022-07-18T08:55:10;99177.81;;;24.93;0.00
23318;BME280;11831;55.918;37.746;2022-07-18T08:57:37;99170.28;;;25.20;0.00
23318;BME280;11831;55.918;37.746;2022-07-18T09:00:07;99168.88;;;24.29;0.00
23318;BME280;11831;55.918;37.746;2022-07-18T09:02:34;99169.19;;;24.74;0.00
23318;BME280;11831;55.918;37.746;2022-07-18T09:05:02;99173.44;;;24.63;0.00
23318;BME280;11831;55.918;37.746;2022-07-18T09:07:31;99170.19;;;24.69;0.00
23318;BME280;11831;55.918;37.746;2022-07-18T09:09:58;99171.59;;;25.43;0.00
23318;BME280;11831;55.918;37.746;2022-07-18T09:12:24;99170.28;;;25.20;0.00
23318;BME280;11831;55.918;37.746;2022-07-18T09:14:51;99172.44;;;25.35;0.00
23318;BME280;11831;55.918;37.746;2022-07-18T09:17:18;99167.78;;;25.06;0.00
23318;BME280;11831;55.918;37.746;2022-07-18T09:20:06;99162.44;;;24.80;0.00
23318;BME280;11831;55.918;37.746;2022-07-18T09:22:35;99164.91;;;24.64;0.00
23318;BME280;11831;55.918;37.746;2022-07-18T09:25:04;99164.47;;;24.92;0.00
23318;BME280;11831;55.918;37.746;2022-07-18T09:32:47;99161.28;;;24.17;0.00
23318;BME280;11831;55.918;37.746;2022-07-18T09:35:15;99153.69;;;24.57;0.00
23318;BME280;11831;55.918;37.746;2022-07-18T09:37:51;99156.81;;;25.15;0.00
23318;BME280;11831;55.918;37.746;2022-07-18T09:40:25;99157.25;;;24.49;0.00
23318;BME280;11831;55.918;37.746;2022-07-18T09:42:51;99149.03;;;24.87;0.00
23318;BME280;11831;55.918;37.746;2022-07-18T09:45:22;99147.13;;;24.88;0.00
23318;BME280;11831;55.918;37.746;2022-07-18T09:47:49;99145.88;;;24.76;0.00
23318;BME280;11831;55.918;37.746;2022-07-18T09:50:23;99141.00;;;24.53;0.00
23318;BME280;11831;55.918;37.746;2022-07-18T09:53:00;99145.28;;;25.00;0.00
23318;BME280;11831;55.918;37.746;2022-07-18T09:55:26;99137.63;;;25.44;0.00
23318;BME280;11831;55.918;37.746;2022-07-18T09:58:14;99129.06;;;25.87;0.00
23318;BME280;11831;55.918;37.746;2022-07-18T10:00:39;99132.50;;;25.43;0.00
23318;BME280;11831;55.918;37.746;2022-07-18T10:03:06;99118.81;;;25.43;0.00
23318;BME280;11831;55.918;37.746;2022-07-18T10:05:34;99115.34;;;25.75;0.00
23318;BME280;11831;55.918;37.746;2022-07-18T10:08:01;99112.53;;;25.42;0.00
23318;BME280;11831;55.918;37.746;2022-07-18T10:10:28;99113.25;;;25.51;0.00
23318;BME280;11831;55.918;37.746;2022-07-18T10:12:55;99110.69;;;25.04;0.00
23318;BME280;11831;55.918;37.746;2022-07-18T10:15:22;99107.25;;;24.78;0.00
23318;BME280;11831;55.918;37.746;2022-07-18T10:17:49;99112.09;;;25.31;0.00
23318;BME280;11831;55.918;37.746;2022-07-18T10:20:15;99106.53;;;26.03;0.00
23318;BME280;11831;55.918;37.746;2022-07-18T10:22:42;99108.03;;;25.58;0.00
23318;BME280;11831;55.918;37.746;2022-07-18T10:25:09;99107.81;;;26.05;0.00
23318;BME280;11831;55.918;37.746;2022-07-18T10:28:10;99104.50;;;25.79;0.00
23318;BME280;11831;55.918;37.746;2022-07-18T10:35:58;99101.56;;;25.63;0.00
23318;BME280;11831;55.918;37.746;2022-07-18T10:38:25;99096.44;;;25.94;0.00
23318;BME280;11831;55.918;37.746;2022-07-18T10:41:01;99093.66;;;26.15;0.00
23318;BME280;11831;55.918;37.746;2022-07-18T10:45:57;99088.94;;;26.73;0.00
23318;BME280;11831;55.918;37.746;2022-07-18T10:48:58;99093.06;;;26.55;0.00
23318;BME280;11831;55.918;37.746;2022-07-18T10:51:16;99090.88;;;26.85;0.00
23318;BME280;11831;55.918;37.746;2022-07-18T10:56:20;99081.25;;;26.91;0.00
23318;BME280;11831;55.918;37.746;2022-07-18T10:58:46;99073.19;;;26.95;0.00
23318;BME280;11831;55.918;37.746;2022-07-18T11:01:16;99079.53;;;27.23;0.00
23318;BME280;11831;55.918;37.746;2022-07-18T11:03:43;99071.47;;;27.98;0.00
23318;BME280;11831;55.918;37.746;2022-07-18T11:06:09;99075.81;;;28.15;0.00
23318;BME280;11831;55.918;37.746;2022-07-18T11:08:35;99065.34;;;27.21;0.00
23318;BME280;11831;55.918;37.746;2022-07-18T11:13:33;99057.72;;;27.82;0.00
23318;BME280;11831;55.918;37.746;2022-07-18T11:16:19;99060.81;;;27.81;0.00
23318;BME280;11831;55.918;37.746;2022-07-18T11:23:42;99061.25;;;26.29;0.00
23318;BME280;11831;55.918;37.746;2022-07-18T11:26:13;99062.78;;;26.39;0.00
23318;BME280;11831;55.918;37.746;2022-07-18T11:28:40;99062.38;;;27.26;0.00
23318;BME280;11831;55.918;37.746;2022-07-18T11:31:08;99053.28;;;27.10;0.00
23318;BME280;11831;55.918;37.746;2022-07-18T11:33:36;99047.13;;;28.44;0.00
23318;BME280;11831;55.918;37.746;2022-07-18T11:36:03;99058.38;;;27.23;0.00
23318;BME280;11831;55.918;37.746;2022-07-18T11:38:29;99055.66;;;27.11;0.00
23318;BME280;11831;55.918;37.746;2022-07-18T11:40:55;99047.81;;;25.79;0.00
23318;BME280;11831;55.918;37.746;2022-07-18T11:43:22;99060.09;;;26.18;0.00
23318;BME280;11831;55.918;37.746;2022-07-18T11:45:58;99051.53;;;26.20;0.00
23318;BME280;11831;55.918;37.746;2022-07-18T11:48:24;99052.41;;;27.34;0.00
23318;BME280;11831;55.918;37.746;2022-07-18T11:50:51;99042.25;;;29.04;0.00
23318;BME280;11831;55.918;37.746;2022-07-18T11:53:17;99040.00;;;28.74;0.00
23318;BME280;11831;55.918;37.746;2022-07-18T11:55:43;99032.09;;;30.05;0.00
23318;BME280;11831;55.918;37.746;2022-07-18T11:58:12;99035.84;;;29.16;0.00
23318;BME280;11831;55.918;37.746;2022-07-18T12:00:39;99031.47;;;26.77;0.00
23318;BME280;11831;55.918;37.746;2022-07-18T12:07:58;99024.22;;;25.87;0.00
23318;BME280;11831;55.918;37.746;2022-07-18T12:10:24;99021.03;;;25.10;0.00
23318;BME280;11831;55.918;37.746;2022-07-18T12:12:50;99007.91;;;24.74;0.00
23318;BME280;11831;55.918;37.746;2022-07-18T12:15:16;99004.53;;;25.39;0.00
23318;BME280;11831;55.918;37.746;2022-07-18T12:17:43;99016.03;;;26.11;0.00
23318;BME280;11831;55.918;37.746;2022-07-18T12:20:14;99012.44;;;25.20;0.00
23318;BME280;11831;55.918;37.746;2022-07-18T12:25:38;98999.22;;;23.66;0.00
23318;BME280;11831;55.918;37.746;2022-07-18T12:28:17;99009.03;;;23.41;0.00
23318;BME280;11831;55.918;37.746;2022-07-18T12:30:44;99006.47;;;23.62;0.00
23318;BME280;11831;55.918;37.746;2022-07-18T12:33:10;99001.16;;;22.88;0.00
23318;BME280;11831;55.918;37.746;2022-07-18T12:35:36;99028.97;;;22.59;0.00
23318;BME280;11831;55.918;37.746;2022-07-18T12:38:04;99030.81;;;22.01;0.00
23318;BME280;11831;55.918;37.746;2022-07-18T12:43:07;99034.44;;;21.88;0.00
23318;BME280;11831;55.918;37.746;2022-07-18T12:45:33;99024.66;;;21.87;0.00
23318;BME280;11831;55.918;37.746;2022-07-18T12:48:00;99050.06;;;22.36;0.00
23318;BME280;11831;55.918;37.746;2022-07-18T12:50:26;99038.13;;;22.15;0.00
23318;BME280;11831;55.918;37.746;2022-07-18T12:52:52;99051.09;;;22.18;0.00
23318;BME280;11831;55.918;37.746;2022-07-18T12:55:18;99050.09;;;22.53;0.00
23318;BME280;11831;55.918;37.746;2022-07-18T12:57:45;99057.72;;;22.34;0.00
23318;BME280;11831;55.918;37.746;2022-07-18T13:00:11;99049.59;;;22.43;0.00
23318;BME280;11831;55.918;37.746;2022-07-18T13:02:37;99053.59;;;22.37;0.00
23318;BME280;11831;55.918;37.746;2022-07-18T13:05:03;99056.75;;;22.30;0.00
23318;BME280;11831;55.918;37.746;2022-07-18T13:07:30;99057.31;;;22.10;0.00
23318;BME280;11831;55.918;37.746;2022-07-18T13:09:56;99055.00;;;22.03;0.00
23318;BME280;11831;55.918;37.746;2022-07-18T13:12:22;99061.72;;;22.28;0.00
23318;BME280;11831;55.918;37.746;2022-07-18T13:14:48;99047.72;;;22.60;0.00
23318;BME280;11831;55.918;37.746;2022-07-18T13:17:14;99050.31;;;22.26;0.00
23318;BME280;11831;55.918;37.746;2022-07-18T13:19:40;99043.91;;;22.70;0.00
23318;BME280;11831;55.918;37.746;2022-07-18T13:22:06;99034.50;;;22.93;0.00
23318;BME280;11831;55.918;37.746;2022-07-18T13:24:32;99038.22;;;23.23;0.00
23318;BME280;11831;55.918;37.746;2022-07-18T13:26:58;99030.34;;;23.57;0.00
23318;BME280;11831;55.918;37.746;2022-07-18T13:29:24;99026.59;;;23.96;0.00
23318;BME280;11831;55.918;37.746;2022-07-18T13:31:50;99031.88;;;24.01;0.00